Managua, Nicaragua

10:43 AM CST on September 04, 2015 (GMT -0600)
Augusto Cesar Sandino | | Change Station
CLOSE
Current Station
Airport
Location: Managua,
Elevation: 184 ft
Nearby Weather Stations

Elev 184 ft 12.14 °N, 86.17 °W | Updated 43 minutes ago

Partly Cloudy
Partly Cloudy
88 °F
Feels Like 96 °F
N
12
Wind Variable Wind from ESE

Today
High -- | Low -- °F
--% Chance of Precip.
Yesterday
High -- | Low -- °F
Precip. -- in
5:34 AM 5:53 PM
Waning Gibbous, 58% visible
Pressure 29.89 in
Visibility 6.2 miles
Clouds Few 2200 ft
Heat Index 96 °F
Dew Point 73 °F
Humidity 62%
Rainfall 0.00 in
Snow Depth Not available.
UV 13 out of 12
Pollen Not available.
Air Quality Not available.
Flu Activity Not available.
METAR MNMG 041600Z 11010KT 9999 FEW022 31/23 Q1012 A2988 NOSIG
Pressure 29.89 in
Visibility 6.2 miles
Clouds Few 2200 ft
Heat Index 96 °F
Dew Point 73 °F
Humidity 62%
Rainfall 0.00 in
Snow Depth Not available.
UV 13 out of 12
Pollen Not available.
Air Quality Not available.
Flu Activity Not available.
METAR MNMG 041600Z 11010KT 9999 FEW022 31/23 Q1012 A2988 NOSIG

10-Day Weather Forecast

×

Almanac

Astronomy

Sep. 04, 2015 Rise Set
Actual Time
Civil Twilight
Nautical Twilight
Astronomical Twilight
Moon
Length of Visible Light
Length of Day
Tomorrow will be .
, % of the Moon is Illuminated

Today's Extremes

Country Highs Country Lows

Community

WunderPhotos

Upload Photos

1,852,226 photos uploaded!

WunderBlogs® & News

Nearby

Air Quality

  Air Quality AQ Index Pollutant
Not available.

Snow Depth

Station Depth Elevation

Earthquake Activity

City Distance Mag. Time & Date
Minimum magnitude displayed is 2.5.

Coastal Water Temperatures

Place Temperature

Stations

Nearby Weather Stations

Station Location Temp. Windchill Dew Point Humidity Wind Precip. Elev Updated Type